Briefing drone pour Vif

Rechercher une autre localisation

Conditions de vol :


Nous sommes le : Vendredi 03 décembre 2021
Il est 21:34 UTC (22:34 LT)

Lever de soleil : 06:31 UTC (07:31 LT)
Coucher de soleil : 16:22 UTC (17:22 LT)

Météo

L'essentiel des conditions de vol

VIGILANCE MÉTÉO FRANCE - Isère (38)
Vigilance Jaune : Pluie-inondation / Avalanches / Neige-verglas
METAR de LFLS
LFLS 032130Z AUTO 06009KT 9999 -SN FEW035/// SCT043/// BKN049/// ///TCU 01/M01 Q1014

Date d'émission: 03/12/2021
Heure d'émission: 21:30 UTC
Vent: 060° pour 9 KT (17 km/h)
Visibilité horizontale: > 10 km
Plafond :
- Peu de nuages à 3500ft (1067m)
- Nuages épars à 4300ft (1311m)
- Nuages morcelés à 4900ft (1494m)
Température: 1 °C
Point de rosée: -1 °C
Humidité: 86%
Pression (QNH): 1014 hPa
Conditions: Faible chute de neige
TAF de LFLS
LFLS 032001Z 0320/0415 CNL

Conditions prévues :

Heure d'émission : Bulletin éffectué le 03 à 20:00 UTC
Prévision : Valide du 03 a 20:00 UTC au 04 a 15:00 UTC
Nuages : à 0ft (0 m)
WEBCAM POUR VIF

Réglementation

Voler en sécurité

CARTES AERONAUTIQUE 1/500.000
CARTES VAC (LFLS)
SUP AIP




Chargement des AIP...
NOTAM (VIF + Terrain à proximité / FIR )




Chargement des NOTAMS...
CONTACT PREFECTURE 38


Avertissement : Les données mises à disposition sont indicatives. Oxygène Drone ne pourra être tenu responsable de dégâts causés aux biens et aux personnes.